sensor_id;sensor_type;location;lat;lon;timestamp;pressure;altitude;pressure_sealevel;temperature;humidity
15694;BME280;7947;48.834;9.132;2023-01-27T00:01:27;98455.44;;;0.40;86.88
15694;BME280;7947;48.834;9.132;2023-01-27T00:04:31;98453.44;;;0.48;86.78
15694;BME280;7947;48.834;9.132;2023-01-27T00:07:33;98452.81;;;0.53;86.54
15694;BME280;7947;48.834;9.132;2023-01-27T00:10:38;98460.94;;;0.51;85.52
15694;BME280;7947;48.834;9.132;2023-01-27T00:13:41;98453.00;;;0.51;85.17
15694;BME280;7947;48.834;9.132;2023-01-27T00:16:43;98451.59;;;0.42;85.57
15694;BME280;7947;48.834;9.132;2023-01-27T00:19:46;98452.38;;;0.43;86.29
15694;BME280;7947;48.834;9.132;2023-01-27T00:22:49;98452.19;;;0.38;86.39
15694;BME280;7947;48.834;9.132;2023-01-27T00:26:12;98453.22;;;0.37;86.32
15694;BME280;7947;48.834;9.132;2023-01-27T00:29:15;98440.44;;;0.40;86.41
15694;BME280;7947;48.834;9.132;2023-01-27T00:32:18;98440.84;;;0.44;86.36
15694;BME280;7947;48.834;9.132;2023-01-27T00:35:39;98438.19;;;0.37;86.88
15694;BME280;7947;48.834;9.132;2023-01-27T00:38:42;98446.91;;;0.38;86.14
15694;BME280;7947;48.834;9.132;2023-01-27T00:41:46;98448.72;;;0.37;86.38
15694;BME280;7947;48.834;9.132;2023-01-27T00:44:50;98460.09;;;0.31;86.65
15694;BME280;7947;48.834;9.132;2023-01-27T00:48:10;98461.72;;;0.32;87.90
15694;BME280;7947;48.834;9.132;2023-01-27T00:51:14;98451.97;;;0.39;86.66
15694;BME280;7947;48.834;9.132;2023-01-27T00:54:17;98455.44;;;0.40;86.11
15694;BME280;7947;48.834;9.132;2023-01-27T00:57:21;98450.34;;;0.32;86.50
15694;BME280;7947;48.834;9.132;2023-01-27T01:00:24;98452.78;;;0.33;86.45
15694;BME280;7947;48.834;9.132;2023-01-27T01:03:32;98455.25;;;0.35;86.91
15694;BME280;7947;48.834;9.132;2023-01-27T01:06:35;98450.34;;;0.32;86.61
15694;BME280;7947;48.834;9.132;2023-01-27T01:09:38;98456.03;;;0.35;86.86
15694;BME280;7947;48.834;9.132;2023-01-27T01:12:43;98462.53;;;0.39;86.10
15694;BME280;7947;48.834;9.132;2023-01-27T01:15:46;98457.25;;;0.39;86.06
15694;BME280;7947;48.834;9.132;2023-01-27T01:18:49;98462.16;;;0.42;85.71
15694;BME280;7947;48.834;9.132;2023-01-27T01:21:52;98458.69;;;0.42;85.85
15694;BME280;7947;48.834;9.132;2023-01-27T01:24:55;98461.31;;;0.42;85.92
15694;BME280;7947;48.834;9.132;2023-01-27T01:27:59;98464.38;;;0.45;85.46
15694;BME280;7947;48.834;9.132;2023-01-27T01:31:06;98461.72;;;0.45;85.96
15694;BME280;7947;48.834;9.132;2023-01-27T01:34:09;98464.97;;;0.47;85.97
15694;BME280;7947;48.834;9.132;2023-01-27T01:37:12;98468.22;;;0.49;85.63
15694;BME280;7947;48.834;9.132;2023-01-27T01:40:15;98455.84;;;0.43;84.76
15694;BME280;7947;48.834;9.132;2023-01-27T01:43:19;98456.06;;;0.48;84.36
15694;BME280;7947;48.834;9.132;2023-01-27T01:46:23;98454.03;;;0.50;84.88
15694;BME280;7947;48.834;9.132;2023-01-27T01:49:29;98453.22;;;0.50;84.45
15694;BME280;7947;48.834;9.132;2023-01-27T01:52:33;98448.75;;;0.44;84.55
15694;BME280;7947;48.834;9.132;2023-01-27T01:55:39;98443.47;;;0.44;84.55
15694;BME280;7947;48.834;9.132;2023-01-27T01:58:44;98443.25;;;0.45;84.46
15694;BME280;7947;48.834;9.132;2023-01-27T02:01:49;98441.44;;;0.46;84.75
15694;BME280;7947;48.834;9.132;2023-01-27T02:04:55;98436.16;;;0.52;84.96
15694;BME280;7947;48.834;9.132;2023-01-27T02:08:04;98427.25;;;0.53;85.01
15694;BME280;7947;48.834;9.132;2023-01-27T02:11:09;98427.44;;;0.52;85.19
15694;BME280;7947;48.834;9.132;2023-01-27T02:14:15;98429.06;;;0.53;85.29
15694;BME280;7947;48.834;9.132;2023-01-27T02:17:19;98426.03;;;0.56;85.10
15694;BME280;7947;48.834;9.132;2023-01-27T02:20:30;98426.81;;;0.56;84.76
15694;BME280;7947;48.834;9.132;2023-01-27T02:23:46;98426.63;;;0.51;84.67
15694;BME280;7947;48.834;9.132;2023-01-27T02:26:52;98426.03;;;0.49;84.80
15694;BME280;7947;48.834;9.132;2023-01-27T02:29:55;98426.03;;;0.49;85.08
15694;BME280;7947;48.834;9.132;2023-01-27T02:32:58;98417.09;;;0.44;85.28
15694;BME280;7947;48.834;9.132;2023-01-27T02:36:03;98418.31;;;0.48;85.22
15694;BME280;7947;48.834;9.132;2023-01-27T02:39:09;98425.19;;;0.49;85.64
15694;BME280;7947;48.834;9.132;2023-01-27T02:42:16;98424.81;;;0.52;85.30
15694;BME280;7947;48.834;9.132;2023-01-27T02:45:19;98425.03;;;0.50;85.43
15694;BME280;7947;48.834;9.132;2023-01-27T02:48:22;98432.72;;;0.45;84.88
15694;BME280;7947;48.834;9.132;2023-01-27T02:51:25;98427.84;;;0.42;84.89
15694;BME280;7947;48.834;9.132;2023-01-27T02:54:29;98420.34;;;0.39;85.13
15694;BME280;7947;48.834;9.132;2023-01-27T02:57:34;98417.91;;;0.38;84.69
15694;BME280;7947;48.834;9.132;2023-01-27T03:00:36;98426.03;;;0.36;85.11
15694;BME280;7947;48.834;9.132;2023-01-27T03:03:40;98416.69;;;0.34;84.96
15694;BME280;7947;48.834;9.132;2023-01-27T03:06:45;98419.94;;;0.36;85.17
15694;BME280;7947;48.834;9.132;2023-01-27T03:09:48;98419.31;;;0.34;85.58
15694;BME280;7947;48.834;9.132;2023-01-27T03:12:52;98413.66;;;0.30;85.23
15694;BME280;7947;48.834;9.132;2023-01-27T03:15:57;98424.59;;;0.34;85.71
15694;BME280;7947;48.834;9.132;2023-01-27T03:19:18;98425.81;;;0.31;85.40
15694;BME280;7947;48.834;9.132;2023-01-27T03:22:22;98420.75;;;0.30;85.84
15694;BME280;7947;48.834;9.132;2023-01-27T03:25:25;98419.13;;;0.29;85.77
15694;BME280;7947;48.834;9.132;2023-01-27T03:28:29;98425.00;;;0.24;86.46
15694;BME280;7947;48.834;9.132;2023-01-27T03:31:32;98429.44;;;0.24;86.17
15694;BME280;7947;48.834;9.132;2023-01-27T03:34:35;98434.13;;;0.22;86.01
15694;BME280;7947;48.834;9.132;2023-01-27T03:37:39;98431.91;;;0.19;86.33
15694;BME280;7947;48.834;9.132;2023-01-27T03:41:01;98435.97;;;0.21;86.89
15694;BME280;7947;48.834;9.132;2023-01-27T03:44:24;98430.06;;;0.26;86.75
15694;BME280;7947;48.834;9.132;2023-01-27T03:47:44;98435.34;;;0.26;86.72
15694;BME280;7947;48.834;9.132;2023-01-27T03:50:48;98438.38;;;0.29;86.82
15694;BME280;7947;48.834;9.132;2023-01-27T03:53:54;98434.53;;;0.32;86.38
15694;BME280;7947;48.834;9.132;2023-01-27T03:56:57;98427.81;;;0.29;86.46
15694;BME280;7947;48.834;9.132;2023-01-27T04:00:10;98440.00;;;0.30;85.81
15694;BME280;7947;48.834;9.132;2023-01-27T04:03:13;98436.97;;;0.33;86.29
15694;BME280;7947;48.834;9.132;2023-01-27T04:06:35;98436.75;;;0.28;86.29
15694;BME280;7947;48.834;9.132;2023-01-27T04:09:58;98436.56;;;0.36;85.30
15694;BME280;7947;48.834;9.132;2023-01-27T04:13:01;98440.00;;;0.30;85.44
15694;BME280;7947;48.834;9.132;2023-01-27T04:16:06;98445.28;;;0.30;86.36
15694;BME280;7947;48.834;9.132;2023-01-27T04:19:10;98438.59;;;0.34;85.94
15694;BME280;7947;48.834;9.132;2023-01-27T04:22:14;98445.47;;;0.35;85.93
15694;BME280;7947;48.834;9.132;2023-01-27T04:25:17;98451.16;;;0.39;85.80
15694;BME280;7947;48.834;9.132;2023-01-27T04:28:20;98449.75;;;0.43;85.88
15694;BME280;7947;48.834;9.132;2023-01-27T04:31:45;98458.28;;;0.25;85.80
15694;BME280;7947;48.834;9.132;2023-01-27T04:34:48;98455.66;;;0.25;85.73
15694;BME280;7947;48.834;9.132;2023-01-27T04:37:51;98456.84;;;0.29;85.61
15694;BME280;7947;48.834;9.132;2023-01-27T04:40:54;98449.13;;;0.28;86.48
15694;BME280;7947;48.834;9.132;2023-01-27T04:43:57;98455.41;;;0.33;86.12
15694;BME280;7947;48.834;9.132;2023-01-27T04:47:01;98452.38;;;0.30;85.23
15694;BME280;7947;48.834;9.132;2023-01-27T04:50:05;98452.59;;;0.28;85.64
15694;BME280;7947;48.834;9.132;2023-01-27T04:53:08;98449.34;;;0.33;85.73
15694;BME280;7947;48.834;9.132;2023-01-27T04:56:19;98450.97;;;0.34;86.16
15694;BME280;7947;48.834;9.132;2023-01-27T04:59:23;98449.13;;;0.41;86.00
15694;BME280;7947;48.834;9.132;2023-01-27T05:02:27;98447.34;;;0.35;85.77
15694;BME280;7947;48.834;9.132;2023-01-27T05:05:30;98443.25;;;0.39;85.60
15694;BME280;7947;48.834;9.132;2023-01-27T05:08:33;98454.63;;;0.33;85.63
15694;BME280;7947;48.834;9.132;2023-01-27T05:11:36;98451.78;;;0.28;86.12
15694;BME280;7947;48.834;9.132;2023-01-27T05:14:39;98457.88;;;0.35;85.91
15694;BME280;7947;48.834;9.132;2023-01-27T05:17:43;98452.19;;;0.31;85.41
15694;BME280;7947;48.834;9.132;2023-01-27T05:20:46;98445.72;;;0.40;86.17
15694;BME280;7947;48.834;9.132;2023-01-27T05:23:51;98445.09;;;0.58;84.78
15694;BME280;7947;48.834;9.132;2023-01-27T05:26:54;98446.09;;;0.57;84.60
15694;BME280;7947;48.834;9.132;2023-01-27T05:29:58;98456.25;;;0.53;84.88
15694;BME280;7947;48.834;9.132;2023-01-27T05:33:02;98462.53;;;0.52;85.51
15694;BME280;7947;48.834;9.132;2023-01-27T05:36:07;98464.78;;;0.49;85.26
15694;BME280;7947;48.834;9.132;2023-01-27T05:39:11;98464.97;;;0.47;85.42
15694;BME280;7947;48.834;9.132;2023-01-27T05:42:14;98469.84;;;0.44;85.66
15694;BME280;7947;48.834;9.132;2023-01-27T05:45:18;98486.88;;;0.41;85.24
15694;BME280;7947;48.834;9.132;2023-01-27T05:48:22;98484.44;;;0.40;85.60
15694;BME280;7947;48.834;9.132;2023-01-27T05:51:28;98490.34;;;0.42;85.91
15694;BME280;7947;48.834;9.132;2023-01-27T05:54:31;98478.34;;;0.52;85.83
15694;BME280;7947;48.834;9.132;2023-01-27T05:57:34;98477.38;;;0.60;85.19
15694;BME280;7947;48.834;9.132;2023-01-27T06:00:37;98475.94;;;0.70;84.62
15694;BME280;7947;48.834;9.132;2023-01-27T06:03:45;98471.09;;;0.67;84.69
15694;BME280;7947;48.834;9.132;2023-01-27T06:06:48;98483.25;;;0.62;84.08
15694;BME280;7947;48.834;9.132;2023-01-27T06:09:51;98481.00;;;0.59;85.17
15694;BME280;7947;48.834;9.132;2023-01-27T06:12:54;98478.78;;;0.56;84.69
15694;BME280;7947;48.834;9.132;2023-01-27T06:15:57;98477.75;;;0.57;84.56
15694;BME280;7947;48.834;9.132;2023-01-27T06:19:02;98481.44;;;0.56;85.08
15694;BME280;7947;48.834;9.132;2023-01-27T06:22:04;98475.34;;;0.55;84.25
15694;BME280;7947;48.834;9.132;2023-01-27T06:25:08;98490.56;;;0.53;84.75
15694;BME280;7947;48.834;9.132;2023-01-27T06:28:11;98477.38;;;0.60;84.31
15694;BME280;7947;48.834;9.132;2023-01-27T06:31:29;98477.56;;;0.65;83.53
15694;BME280;7947;48.834;9.132;2023-01-27T06:34:33;98480.19;;;0.58;84.32
15694;BME280;7947;48.834;9.132;2023-01-27T06:37:36;98485.06;;;0.55;84.15
15694;BME280;7947;48.834;9.132;2023-01-27T06:40:39;98492.16;;;0.54;84.24
15694;BME280;7947;48.834;9.132;2023-01-27T06:43:42;98484.69;;;0.58;84.08
15694;BME280;7947;48.834;9.132;2023-01-27T06:46:45;98495.22;;;0.58;83.95
15694;BME280;7947;48.834;9.132;2023-01-27T06:49:49;98502.09;;;0.52;84.29
15694;BME280;7947;48.834;9.132;2023-01-27T06:52:58;98503.94;;;0.52;83.79
15694;BME280;7947;48.834;9.132;2023-01-27T06:56:01;98509.66;;;0.62;84.30
15694;BME280;7947;48.834;9.132;2023-01-27T06:59:04;98520.22;;;0.62;84.26
15694;BME280;7947;48.834;9.132;2023-01-27T07:02:09;98521.19;;;0.61;84.26
15694;BME280;7947;48.834;9.132;2023-01-27T07:05:15;98536.22;;;0.60;83.48
15694;BME280;7947;48.834;9.132;2023-01-27T07:08:18;98535.81;;;0.63;84.15
15694;BME280;7947;48.834;9.132;2023-01-27T07:11:21;98534.19;;;0.62;83.68
15694;BME280;7947;48.834;9.132;2023-01-27T07:14:25;98549.00;;;0.57;84.43
15694;BME280;7947;48.834;9.132;2023-01-27T07:17:31;98543.34;;;0.60;84.43
15694;BME280;7947;48.834;9.132;2023-01-27T07:20:36;98551.88;;;0.62;84.03
15694;BME280;7947;48.834;9.132;2023-01-27T07:23:39;98555.09;;;0.57;83.77
15694;BME280;7947;48.834;9.132;2023-01-27T07:26:42;98554.50;;;0.62;84.22
15694;BME280;7947;48.834;9.132;2023-01-27T07:29:50;98556.13;;;0.63;84.93
15694;BME280;7947;48.834;9.132;2023-01-27T07:32:53;98550.25;;;0.67;84.38
15694;BME280;7947;48.834;9.132;2023-01-27T07:35:58;98545.16;;;0.72;83.81
15694;BME280;7947;48.834;9.132;2023-01-27T07:39:01;98563.84;;;0.84;82.87
15694;BME280;7947;48.834;9.132;2023-01-27T07:42:07;98570.72;;;0.72;83.12
15694;BME280;7947;48.834;9.132;2023-01-27T07:45:11;98568.91;;;0.72;83.63
15694;BME280;7947;48.834;9.132;2023-01-27T07:48:14;98568.31;;;0.77;83.95
15694;BME280;7947;48.834;9.132;2023-01-27T07:51:19;98550.88;;;0.82;83.38
15694;BME280;7947;48.834;9.132;2023-01-27T07:54:23;98574.41;;;0.84;82.70
15694;BME280;7947;48.834;9.132;2023-01-27T07:57:26;98580.72;;;0.83;83.23
15694;BME280;7947;48.834;9.132;2023-01-27T08:00:30;98585.56;;;0.86;82.32
15694;BME280;7947;48.834;9.132;2023-01-27T08:03:34;98584.16;;;0.83;82.68
15694;BME280;7947;48.834;9.132;2023-01-27T08:06:40;98580.50;;;0.84;82.15
15694;BME280;7947;48.834;9.132;2023-01-27T08:09:43;98574.81;;;0.81;82.24
15694;BME280;7947;48.834;9.132;2023-01-27T08:12:46;98579.31;;;0.87;81.70
15694;BME280;7947;48.834;9.132;2023-01-27T08:15:54;98590.44;;;0.82;82.07
15694;BME280;7947;48.834;9.132;2023-01-27T08:18:57;98590.47;;;0.89;82.21
15694;BME280;7947;48.834;9.132;2023-01-27T08:22:01;98589.25;;;0.85;81.86
15694;BME280;7947;48.834;9.132;2023-01-27T08:25:05;98596.13;;;0.86;82.63
15694;BME280;7947;48.834;9.132;2023-01-27T08:28:08;98589.22;;;0.91;82.06
15694;BME280;7947;48.834;9.132;2023-01-27T08:31:13;98596.34;;;0.98;81.35
15694;BME280;7947;48.834;9.132;2023-01-27T08:34:17;98603.66;;;0.96;82.05
15694;BME280;7947;48.834;9.132;2023-01-27T08:37:21;98603.06;;;1.00;81.95
15694;BME280;7947;48.834;9.132;2023-01-27T08:40:24;98598.41;;;1.02;81.87
15694;BME280;7947;48.834;9.132;2023-01-27T08:43:27;98603.69;;;1.02;80.84
15694;BME280;7947;48.834;9.132;2023-01-27T08:46:30;98602.22;;;0.93;79.94
15694;BME280;7947;48.834;9.132;2023-01-27T08:49:32;98616.03;;;0.95;79.79
15694;BME280;7947;48.834;9.132;2023-01-27T08:52:37;98602.00;;;0.62;80.15
15694;BME280;7947;48.834;9.132;2023-01-27T08:55:40;98616.91;;;0.35;81.77
15694;BME280;7947;48.834;9.132;2023-01-27T08:58:43;98611.09;;;0.53;81.99
15694;BME280;7947;48.834;9.132;2023-01-27T09:01:47;98607.44;;;0.60;82.20
15694;BME280;7947;48.834;9.132;2023-01-27T09:04:51;98625.75;;;0.62;82.13
15694;BME280;7947;48.834;9.132;2023-01-27T09:07:55;98623.34;;;0.73;82.41
15694;BME280;7947;48.834;9.132;2023-01-27T09:10:58;98621.91;;;0.77;81.56
15694;BME280;7947;48.834;9.132;2023-01-27T09:14:01;98616.88;;;0.89;80.84
15694;BME280;7947;48.834;9.132;2023-01-27T09:17:04;98604.66;;;0.88;80.71
15694;BME280;7947;48.834;9.132;2023-01-27T09:20:09;98604.03;;;0.79;79.98
15694;BME280;7947;48.834;9.132;2023-01-27T09:23:14;98610.75;;;0.82;79.88
15694;BME280;7947;48.834;9.132;2023-01-27T09:26:17;98615.81;;;0.77;79.93
15694;BME280;7947;48.834;9.132;2023-01-27T09:29:20;98612.78;;;0.73;80.65
15694;BME280;7947;48.834;9.132;2023-01-27T09:32:23;98616.03;;;0.82;80.96
15694;BME280;7947;48.834;9.132;2023-01-27T09:35:29;98621.13;;;0.90;80.57
15694;BME280;7947;48.834;9.132;2023-01-27T09:38:39;98624.78;;;1.02;80.10
15694;BME280;7947;48.834;9.132;2023-01-27T09:42:05;98616.06;;;1.08;79.32
15694;BME280;7947;48.834;9.132;2023-01-27T09:45:27;98619.94;;;1.12;78.77
15694;BME280;7947;48.834;9.132;2023-01-27T09:52:11;98630.25;;;0.87;79.86
15694;BME280;7947;48.834;9.132;2023-01-27T09:55:24;98620.72;;;1.00;79.51
15694;BME280;7947;48.834;9.132;2023-01-27T09:58:46;98627.81;;;0.99;79.42
15694;BME280;7947;48.834;9.132;2023-01-27T10:02:02;98623.97;;;0.95;79.49
15694;BME280;7947;48.834;9.132;2023-01-27T10:05:32;98617.00;;;0.68;79.96
15694;BME280;7947;48.834;9.132;2023-01-27T10:08:57;98627.56;;;0.68;80.17
15694;BME280;7947;48.834;9.132;2023-01-27T10:12:11;98620.69;;;0.73;80.52
15694;BME280;7947;48.834;9.132;2023-01-27T10:15:27;98624.34;;;0.85;80.87
15694;BME280;7947;48.834;9.132;2023-01-27T10:18:46;98623.56;;;0.91;80.48
15694;BME280;7947;48.834;9.132;2023-01-27T10:22:00;98624.78;;;0.96;80.47
15694;BME280;7947;48.834;9.132;2023-01-27T10:25:15;98611.38;;;1.17;79.73
15694;BME280;7947;48.834;9.132;2023-01-27T10:28:27;98617.69;;;1.22;78.92
15694;BME280;7947;48.834;9.132;2023-01-27T10:31:35;98619.72;;;1.27;78.49
15694;BME280;7947;48.834;9.132;2023-01-27T10:34:43;98617.69;;;1.35;77.94
15694;BME280;7947;48.834;9.132;2023-01-27T10:37:59;98618.28;;;1.44;78.03
15694;BME280;7947;48.834;9.132;2023-01-27T10:41:14;98617.09;;;1.53;76.51
15694;BME280;7947;48.834;9.132;2023-01-27T10:44:34;98614.44;;;1.53;76.93
15694;BME280;7947;48.834;9.132;2023-01-27T10:47:53;98619.31;;;1.56;76.93
15694;BME280;7947;48.834;9.132;2023-01-27T10:51:01;98628.66;;;1.58;76.93
15694;BME280;7947;48.834;9.132;2023-01-27T10:54:09;98624.16;;;1.72;75.86
15694;BME280;7947;48.834;9.132;2023-01-27T10:57:16;98632.72;;;1.54;75.32
15694;BME280;7947;48.834;9.132;2023-01-27T11:00:29;98624.00;;;1.34;76.28
15694;BME280;7947;48.834;9.132;2023-01-27T11:03:55;98618.50;;;1.42;77.08
15694;BME280;7947;48.834;9.132;2023-01-27T11:07:02;98626.22;;;1.50;76.63
15694;BME280;7947;48.834;9.132;2023-01-27T11:10:09;98618.47;;;1.55;77.16
15694;BME280;7947;48.834;9.132;2023-01-27T11:13:17;98631.47;;;1.57;77.08
15694;BME280;7947;48.834;9.132;2023-01-27T11:16:26;98620.31;;;1.61;77.18
15694;BME280;7947;48.834;9.132;2023-01-27T11:19:41;98631.31;;;1.58;75.97
15694;BME280;7947;48.834;9.132;2023-01-27T11:22:53;98616.63;;;1.69;76.08
15694;BME280;7947;48.834;9.132;2023-01-27T11:26:01;98622.34;;;1.59;75.68
15694;BME280;7947;48.834;9.132;2023-01-27T11:29:18;98618.47;;;1.55;76.28
15694;BME280;7947;48.834;9.132;2023-01-27T11:32:35;98622.38;;;1.53;76.89
15694;BME280;7947;48.834;9.132;2023-01-27T11:35:42;98618.91;;;1.52;76.74
15694;BME280;7947;48.834;9.132;2023-01-27T11:38:45;98612.97;;;1.57;76.22
15694;BME280;7947;48.834;9.132;2023-01-27T11:41:51;98602.03;;;1.60;77.06
15694;BME280;7947;48.834;9.132;2023-01-27T11:44:55;98599.78;;;1.63;76.46
15694;BME280;7947;48.834;9.132;2023-01-27T11:48:04;98603.03;;;1.65;76.56
15694;BME280;7947;48.834;9.132;2023-01-27T11:51:13;98598.13;;;1.69;76.53
15694;BME280;7947;48.834;9.132;2023-01-27T11:54:21;98594.47;;;1.70;76.78
15694;BME280;7947;48.834;9.132;2023-01-27T11:57:25;98601.38;;;1.77;77.19
15694;BME280;7947;48.834;9.132;2023-01-27T12:00:33;98598.31;;;1.87;76.61
15694;BME280;7947;48.834;9.132;2023-01-27T12:03:48;98589.16;;;1.83;76.56
15694;BME280;7947;48.834;9.132;2023-01-27T12:06:58;98594.44;;;1.83;77.16
15694;BME280;7947;48.834;9.132;2023-01-27T12:10:20;98593.22;;;1.86;78.05
15694;BME280;7947;48.834;9.132;2023-01-27T12:13:24;98590.16;;;1.82;77.92
15694;BME280;7947;48.834;9.132;2023-01-27T12:16:41;98586.91;;;1.87;77.63
15694;BME280;7947;48.834;9.132;2023-01-27T12:19:47;98579.34;;;1.90;76.67
15694;BME280;7947;48.834;9.132;2023-01-27T12:22:52;98577.97;;;1.74;77.79
15694;BME280;7947;48.834;9.132;2023-01-27T12:25:58;98574.94;;;1.71;78.24
15694;BME280;7947;48.834;9.132;2023-01-27T12:29:05;98579.84;;;1.74;78.01
15694;BME280;7947;48.834;9.132;2023-01-27T12:32:14;98575.16;;;1.76;78.11
15694;BME280;7947;48.834;9.132;2023-01-27T12:35:22;98573.50;;;1.81;78.02
15694;BME280;7947;48.834;9.132;2023-01-27T12:38:28;98580.19;;;1.91;78.09
15694;BME280;7947;48.834;9.132;2023-01-27T12:41:35;98578.75;;;1.88;77.13
15694;BME280;7947;48.834;9.132;2023-01-27T12:44:40;98573.63;;;2.00;77.62
15694;BME280;7947;48.834;9.132;2023-01-27T12:47:55;98578.19;;;1.79;78.29
15694;BME280;7947;48.834;9.132;2023-01-27T12:51:05;98582.66;;;1.86;78.93
15694;BME280;7947;48.834;9.132;2023-01-27T12:54:20;98576.94;;;1.82;78.98
15694;BME280;7947;48.834;9.132;2023-01-27T12:57:26;98579.41;;;1.77;78.45
15694;BME280;7947;48.834;9.132;2023-01-27T13:00:33;98575.75;;;1.78;78.50
15694;BME280;7947;48.834;9.132;2023-01-27T13:03:38;98582.06;;;1.77;78.63
15694;BME280;7947;48.834;9.132;2023-01-27T13:06:46;98577.38;;;1.72;79.23
15694;BME280;7947;48.834;9.132;2023-01-27T13:09:52;98579.84;;;1.67;78.60
15694;BME280;7947;48.834;9.132;2023-01-27T13:12:57;98574.13;;;1.70;79.19
15694;BME280;7947;48.834;9.132;2023-01-27T13:16:13;98579.41;;;1.70;79.47
15694;BME280;7947;48.834;9.132;2023-01-27T13:19:17;98572.47;;;1.82;79.09
15694;BME280;7947;48.834;9.132;2023-01-27T13:22:22;98572.09;;;1.72;78.74
15694;BME280;7947;48.834;9.132;2023-01-27T13:25:35;98571.69;;;1.75;78.21
15694;BME280;7947;48.834;9.132;2023-01-27T13:28:43;98575.34;;;1.74;78.88
15694;BME280;7947;48.834;9.132;2023-01-27T13:31:57;98574.94;;;1.71;78.71
15694;BME280;7947;48.834;9.132;2023-01-27T13:35:14;98579.44;;;1.64;79.49
15694;BME280;7947;48.834;9.132;2023-01-27T13:38:23;98580.28;;;1.64;79.59
15694;BME280;7947;48.834;9.132;2023-01-27T13:41:34;98585.31;;;1.72;79.49
15694;BME280;7947;48.834;9.132;2023-01-27T13:44:42;98592.84;;;1.75;78.65
15694;BME280;7947;48.834;9.132;2023-01-27T13:47:50;98600.56;;;1.70;78.75
15694;BME280;7947;48.834;9.132;2023-01-27T13:51:02;98605.44;;;1.67;78.78
15694;BME280;7947;48.834;9.132;2023-01-27T13:54:11;98597.56;;;1.60;79.05
15694;BME280;7947;48.834;9.132;2023-01-27T14:01:16;98597.31;;;1.68;79.45
15694;BME280;7947;48.834;9.132;2023-01-27T14:04:35;98598.72;;;1.77;78.28
15694;BME280;7947;48.834;9.132;2023-01-27T14:07:44;98609.91;;;1.73;78.63
15694;BME280;7947;48.834;9.132;2023-01-27T14:11:03;98610.13;;;1.71;78.65
15694;BME280;7947;48.834;9.132;2023-01-27T14:14:40;98622.13;;;1.74;78.76
15694;BME280;7947;48.834;9.132;2023-01-27T14:18:03;98614.19;;;1.74;78.94
15694;BME280;7947;48.834;9.132;2023-01-27T14:21:16;98614.38;;;1.72;78.71
15694;BME280;7947;48.834;9.132;2023-01-27T14:24:45;98618.88;;;1.72;78.36
15694;BME280;7947;48.834;9.132;2023-01-27T14:27:56;98615.41;;;1.65;78.37
15694;BME280;7947;48.834;9.132;2023-01-27T14:31:07;98628.44;;;1.60;78.71
15694;BME280;7947;48.834;9.132;2023-01-27T14:34:26;98620.31;;;1.68;78.56
15694;BME280;7947;48.834;9.132;2023-01-27T14:37:40;98617.03;;;1.72;78.91
15694;BME280;7947;48.834;9.132;2023-01-27T14:40:56;98611.78;;;1.66;79.57
15694;BME280;7947;48.834;9.132;2023-01-27T14:44:13;98625.59;;;1.61;79.31
15694;BME280;7947;48.834;9.132;2023-01-27T14:47:22;98628.84;;;1.70;79.45
15694;BME280;7947;48.834;9.132;2023-01-27T14:50:33;98618.06;;;1.65;79.17
15694;BME280;7947;48.834;9.132;2023-01-27T14:53:49;98630.66;;;1.63;78.72
15694;BME280;7947;48.834;9.132;2023-01-27T14:57:06;98628.63;;;1.65;78.21
15694;BME280;7947;48.834;9.132;2023-01-27T15:00:29;98626.59;;;1.67;78.95
15694;BME280;7947;48.834;9.132;2023-01-27T15:03:44;98626.00;;;1.65;78.25
15694;BME280;7947;48.834;9.132;2023-01-27T15:06:55;98616.41;;;1.70;78.74
15694;BME280;7947;48.834;9.132;2023-01-27T15:10:17;98614.19;;;1.74;77.92
15694;BME280;7947;48.834;9.132;2023-01-27T15:13:32;98621.69;;;1.70;77.73
15694;BME280;7947;48.834;9.132;2023-01-27T15:16:51;98625.16;;;1.71;77.93
15694;BME280;7947;48.834;9.132;2023-01-27T15:20:20;98631.28;;;1.65;78.24
15694;BME280;7947;48.834;9.132;2023-01-27T15:23:37;98629.63;;;1.70;79.05
15694;BME280;7947;48.834;9.132;2023-01-27T15:26:45;98629.25;;;1.73;79.42
15694;BME280;7947;48.834;9.132;2023-01-27T15:29:49;98625.38;;;1.76;78.54
15694;BME280;7947;48.834;9.132;2023-01-27T15:32:55;98635.97;;;1.69;78.66
15694;BME280;7947;48.834;9.132;2023-01-27T15:36:16;98630.47;;;1.64;78.05
15694;BME280;7947;48.834;9.132;2023-01-27T15:39:19;98630.28;;;1.66;77.75
15694;BME280;7947;48.834;9.132;2023-01-27T15:42:48;98623.94;;;1.73;78.22
15694;BME280;7947;48.834;9.132;2023-01-27T15:45:53;98627.81;;;1.71;78.45
15694;BME280;7947;48.834;9.132;2023-01-27T15:48:59;98627.81;;;1.77;78.40
15694;BME280;7947;48.834;9.132;2023-01-27T15:52:11;98631.88;;;1.67;78.75
15694;BME280;7947;48.834;9.132;2023-01-27T15:55:25;98633.09;;;1.71;78.73
15694;BME280;7947;48.834;9.132;2023-01-27T15:58:32;98647.75;;;1.67;78.52
15694;BME280;7947;48.834;9.132;2023-01-27T16:01:36;98657.31;;;1.68;78.56
15694;BME280;7947;48.834;9.132;2023-01-27T16:04:40;98660.16;;;1.60;78.15
15694;BME280;7947;48.834;9.132;2023-01-27T16:07:46;98667.47;;;1.58;78.66
15694;BME280;7947;48.834;9.132;2023-01-27T16:11:22;98672.56;;;1.59;78.86
15694;BME280;7947;48.834;9.132;2023-01-27T16:14:41;98678.84;;;1.65;78.77
15694;BME280;7947;48.834;9.132;2023-01-27T16:17:59;98675.81;;;1.68;78.65
15694;BME280;7947;48.834;9.132;2023-01-27T16:21:04;98683.13;;;1.66;78.49
15694;BME280;7947;48.834;9.132;2023-01-27T16:24:14;98688.00;;;1.69;78.21
15694;BME280;7947;48.834;9.132;2023-01-27T16:27:30;98687.78;;;1.70;78.61
15694;BME280;7947;48.834;9.132;2023-01-27T16:30:38;98695.53;;;1.72;78.25
15694;BME280;7947;48.834;9.132;2023-01-27T16:33:44;98693.09;;;1.77;78.59
15694;BME280;7947;48.834;9.132;2023-01-27T16:37:00;98694.28;;;1.74;78.66
15694;BME280;7947;48.834;9.132;2023-01-27T16:40:06;98695.31;;;1.73;79.02
15694;BME280;7947;48.834;9.132;2023-01-27T16:43:17;98696.31;;;1.72;79.00
15694;BME280;7947;48.834;9.132;2023-01-27T16:46:26;98694.91;;;1.76;78.45
15694;BME280;7947;48.834;9.132;2023-01-27T16:49:34;98696.13;;;1.80;78.17
15694;BME280;7947;48.834;9.132;2023-01-27T16:52:39;98698.38;;;1.70;78.76
15694;BME280;7947;48.834;9.132;2023-01-27T16:55:54;98694.28;;;1.74;78.69
15694;BME280;7947;48.834;9.132;2023-01-27T16:59:00;98695.72;;;1.77;78.75
15694;BME280;7947;48.834;9.132;2023-01-27T17:02:12;98696.53;;;1.77;79.24
15694;BME280;7947;48.834;9.132;2023-01-27T17:05:20;98691.88;;;1.79;79.53
15694;BME280;7947;48.834;9.132;2023-01-27T17:08:26;98693.69;;;1.79;79.30
15694;BME280;7947;48.834;9.132;2023-01-27T17:11:31;98699.59;;;1.74;79.19